createdAt,value
2023-03-26T00:02:20.909Z,2.17
2023-03-26T00:04:48.453Z,1.90
2023-03-26T00:07:16.079Z,1.75
2023-03-26T00:09:44.193Z,2.47
2023-03-26T00:12:13.038Z,1.60
2023-03-26T00:14:41.375Z,1.80
2023-03-26T00:17:08.991Z,2.30
2023-03-26T00:19:36.964Z,2.17
2023-03-26T00:22:04.626Z,2.35
2023-03-26T00:24:32.203Z,2.50
2023-03-26T00:26:59.785Z,1.73
2023-03-26T00:29:28.834Z,2.55
2023-03-26T00:31:56.281Z,2.00
2023-03-26T00:34:24.851Z,1.95
2023-03-26T00:36:54.578Z,1.55
2023-03-26T00:39:24.037Z,1.98
2023-03-26T00:41:54.425Z,2.30
2023-03-26T00:44:22.486Z,2.10
2023-03-26T00:46:51.370Z,2.03
2023-03-26T00:49:18.811Z,2.00
2023-03-26T00:51:46.268Z,1.98
2023-03-26T00:54:13.711Z,1.70
2023-03-26T00:56:41.241Z,1.77
2023-03-26T00:59:09.343Z,1.48
2023-03-26T01:01:37.677Z,2.22
2023-03-26T01:04:27.650Z,2.17
2023-03-26T01:06:56.429Z,2.25
2023-03-26T01:09:26.679Z,1.80
2023-03-26T01:11:54.164Z,2.10
2023-03-26T01:14:23.512Z,2.30
2023-03-26T01:16:52.945Z,1.90
2023-03-26T01:19:23.592Z,2.35
2023-03-26T01:21:52.433Z,1.70
2023-03-26T01:24:22.138Z,2.08
2023-03-26T01:27:01.103Z,2.22
2023-03-26T01:29:31.752Z,2.13
2023-03-26T01:32:04.274Z,2.15
2023-03-26T01:34:37.263Z,2.60
2023-03-26T01:37:09.973Z,2.38
2023-03-26T01:39:42.832Z,2.40
2023-03-26T01:42:12.372Z,2.47
2023-03-26T01:44:42.829Z,2.53
2023-03-26T01:47:10.990Z,2.63
2023-03-26T01:49:38.466Z,2.20
2023-03-26T01:52:07.592Z,2.42
2023-03-26T01:54:35.080Z,2.28
2023-03-26T01:57:08.302Z,2.70
2023-03-26T01:59:43.866Z,2.47
2023-03-26T02:02:13.876Z,2.88
2023-03-26T02:04:44.480Z,2.45
2023-03-26T02:07:17.871Z,2.70
2023-03-26T02:09:47.206Z,2.40
2023-03-26T02:12:16.210Z,2.60
2023-03-26T02:14:43.772Z,2.83
2023-03-26T02:17:11.333Z,2.60
2023-03-26T02:19:41.815Z,2.13
2023-03-26T02:22:11.264Z,2.67
2023-03-26T02:24:39.346Z,2.83
2023-03-26T02:27:07.756Z,2.40
2023-03-26T02:29:38.248Z,2.72
2023-03-26T02:32:05.977Z,2.40
2023-03-26T02:34:33.751Z,2.05
2023-03-26T02:37:01.358Z,2.50
2023-03-26T02:39:28.866Z,2.70
2023-03-26T02:41:56.301Z,2.67
2023-03-26T02:44:23.760Z,2.75
2023-03-26T02:46:52.558Z,2.80
2023-03-26T02:49:19.991Z,2.80
2023-03-26T02:51:47.354Z,2.70
2023-03-26T02:54:16.206Z,2.60
2023-03-26T02:56:43.692Z,2.20
2023-03-26T02:59:11.206Z,2.80
2023-03-26T03:01:42.780Z,2.83
2023-03-26T03:04:11.676Z,2.08
2023-03-26T03:06:40.397Z,2.65
2023-03-26T03:09:08.470Z,2.88
2023-03-26T03:11:36.802Z,2.95
2023-03-26T03:14:04.479Z,2.38
2023-03-26T03:16:32.199Z,2.67
2023-03-26T03:18:59.917Z,2.50
2023-03-26T03:21:29.779Z,2.67
2023-03-26T03:24:00.120Z,2.60
2023-03-26T03:26:29.755Z,3.00
2023-03-26T03:28:57.741Z,2.93
2023-03-26T03:31:25.748Z,2.70
2023-03-26T03:33:53.587Z,2.60
2023-03-26T03:36:23.007Z,2.40
2023-03-26T03:38:52.202Z,2.90
2023-03-26T03:41:19.655Z,2.95
2023-03-26T03:43:47.114Z,2.75
2023-03-26T03:46:14.577Z,3.00
2023-03-26T03:48:48.053Z,2.95
2023-03-26T03:51:15.591Z,3.08
2023-03-26T03:53:43.070Z,2.90
2023-03-26T03:56:13.819Z,3.13
2023-03-26T03:58:42.254Z,3.10
2023-03-26T04:01:11.093Z,2.97
2023-03-26T04:03:39.378Z,3.15
2023-03-26T04:06:07.939Z,3.35
2023-03-26T04:08:35.617Z,3.30
2023-03-26T04:11:03.196Z,3.15
2023-03-26T04:13:31.995Z,3.30
2023-03-26T04:16:00.017Z,3.30
2023-03-26T04:18:27.714Z,3.00
2023-03-26T04:20:55.810Z,2.97
2023-03-26T04:23:23.380Z,3.40
2023-03-26T04:25:53.863Z,3.28
2023-03-26T04:28:28.128Z,3.45
2023-03-26T04:31:00.621Z,3.23
2023-03-26T04:33:28.814Z,2.93
2023-03-26T04:36:01.457Z,2.97
2023-03-26T04:38:29.928Z,3.03
2023-03-26T04:41:00.867Z,2.97
2023-03-26T04:43:30.242Z,2.97
2023-03-26T04:46:02.258Z,3.13
2023-03-26T04:48:30.370Z,3.08
2023-03-26T04:50:58.050Z,3.00
2023-03-26T04:53:25.545Z,2.97
2023-03-26T04:55:56.601Z,2.80
2023-03-26T04:58:32.850Z,3.03
2023-03-26T05:01:09.930Z,2.60
2023-03-26T05:03:40.617Z,2.88
2023-03-26T05:06:09.406Z,2.90
2023-03-26T05:08:36.969Z,3.00
2023-03-26T05:11:07.371Z,2.88
2023-03-26T05:13:34.849Z,2.70
2023-03-26T05:16:03.850Z,2.85
2023-03-26T05:18:32.246Z,2.67
2023-03-26T05:20:59.755Z,3.05
2023-03-26T05:23:27.226Z,3.78
2023-03-26T05:25:54.887Z,4.43
2023-03-26T05:28:24.565Z,3.58
2023-03-26T05:30:53.171Z,2.90
2023-03-26T05:33:22.466Z,3.15
2023-03-26T05:35:59.464Z,2.70
2023-03-26T05:38:28.941Z,2.80
2023-03-26T05:40:58.866Z,2.97
2023-03-26T05:43:26.377Z,2.72
2023-03-26T05:45:53.869Z,2.58
2023-03-26T05:48:22.811Z,2.85
2023-03-26T05:50:50.465Z,2.65
2023-03-26T05:53:18.274Z,2.60
2023-03-26T05:55:46.768Z,2.45
2023-03-26T05:58:14.495Z,2.53
2023-03-26T06:00:41.964Z,2.65
2023-03-26T06:03:12.980Z,2.80
2023-03-26T06:05:42.974Z,2.50
2023-03-26T06:08:10.463Z,2.50
2023-03-26T06:10:38.522Z,3.25
2023-03-26T06:13:06.072Z,2.72
2023-03-26T06:15:33.691Z,2.97
2023-03-26T06:18:01.282Z,3.03
2023-03-26T06:20:28.871Z,3.03
2023-03-26T06:22:57.670Z,2.65
2023-03-26T06:25:25.154Z,2.97
2023-03-26T06:27:52.611Z,3.85
2023-03-26T06:30:20.201Z,2.88
2023-03-26T06:32:47.636Z,3.00
2023-03-26T06:35:15.209Z,2.80
2023-03-26T06:37:42.992Z,3.92
2023-03-26T06:40:13.686Z,3.42
2023-03-26T06:43:08.753Z,2.65
2023-03-26T06:45:29.908Z,2.70
2023-03-26T06:47:57.410Z,2.70
2023-03-26T06:50:24.929Z,2.90
2023-03-26T06:52:54.184Z,3.22
2023-03-26T06:55:23.406Z,2.80
2023-03-26T06:57:50.940Z,2.92
2023-03-26T07:00:18.596Z,3.13
2023-03-26T07:02:46.388Z,3.35
2023-03-26T07:05:14.270Z,3.50
2023-03-26T07:07:46.983Z,3.30
2023-03-26T07:10:15.041Z,2.63
2023-03-26T07:12:44.023Z,2.78
2023-03-26T07:15:11.853Z,2.67
2023-03-26T07:17:39.366Z,2.90
2023-03-26T07:20:07.988Z,2.63
2023-03-26T07:22:36.161Z,2.47
2023-03-26T07:25:03.860Z,2.50
2023-03-26T07:27:39.744Z,2.60
2023-03-26T07:30:10.105Z,2.95
2023-03-26T07:32:43.293Z,2.50
2023-03-26T07:35:14.658Z,2.45
2023-03-26T07:37:46.557Z,3.00
2023-03-26T07:40:18.779Z,2.20
2023-03-26T07:42:55.565Z,2.30
2023-03-26T07:45:27.159Z,2.53
2023-03-26T07:47:57.010Z,2.50
2023-03-26T07:50:25.453Z,2.60
2023-03-26T07:52:53.094Z,2.70
2023-03-26T07:55:20.986Z,2.03
2023-03-26T07:57:56.483Z,2.30
2023-03-26T08:00:27.626Z,2.30
2023-03-26T08:03:10.437Z,1.80
2023-03-26T08:05:43.283Z,2.42
2023-03-26T08:08:16.496Z,2.40
2023-03-26T08:10:50.203Z,1.98
2023-03-26T08:13:22.030Z,2.08
2023-03-26T08:15:54.270Z,2.28
2023-03-26T08:18:27.313Z,2.80
2023-03-26T08:20:58.320Z,2.40
2023-03-26T08:23:28.700Z,2.35
2023-03-26T08:26:02.262Z,2.53
2023-03-26T08:28:33.692Z,2.35
2023-03-26T08:31:04.140Z,2.20
2023-03-26T08:33:32.327Z,2.63
2023-03-26T08:35:59.859Z,1.92
2023-03-26T08:38:27.373Z,2.22
2023-03-26T08:41:14.623Z,2.03
2023-03-26T08:43:59.193Z,2.20
2023-03-26T08:46:40.564Z,1.67
2023-03-26T08:49:29.779Z,1.88
2023-03-26T08:52:21.509Z,2.08
2023-03-26T08:54:57.188Z,2.35
2023-03-26T08:57:49.718Z,2.67
2023-03-26T09:00:32.093Z,1.92
2023-03-26T09:03:09.266Z,2.55
2023-03-26T09:05:46.497Z,2.20
2023-03-26T09:08:54.080Z,2.25
2023-03-26T09:11:45.579Z,3.03
2023-03-26T09:14:33.811Z,2.20
2023-03-26T09:17:21.273Z,2.10
2023-03-26T09:20:08.885Z,2.30
2023-03-26T09:22:48.789Z,1.97
2023-03-26T09:25:31.149Z,3.05
2023-03-26T09:28:29.291Z,1.95
2023-03-26T09:31:17.416Z,2.10
2023-03-26T09:34:00.174Z,1.70
2023-03-26T09:36:40.268Z,2.20
2023-03-26T09:39:10.910Z,2.10
2023-03-26T09:41:42.604Z,1.93
2023-03-26T09:44:27.670Z,2.40
2023-03-26T09:47:00.366Z,2.28
2023-03-26T09:49:35.900Z,2.10
2023-03-26T09:52:24.320Z,1.73
2023-03-26T09:55:02.408Z,2.00
2023-03-26T09:57:36.079Z,2.17
2023-03-26T10:00:18.531Z,1.80
2023-03-26T10:02:50.169Z,1.88
2023-03-26T10:05:22.208Z,1.67
2023-03-26T10:07:53.528Z,1.70
2023-03-26T10:10:27.015Z,1.58
2023-03-26T10:13:11.606Z,1.42
2023-03-26T10:15:49.491Z,1.85
2023-03-26T10:18:27.614Z,2.00
2023-03-26T10:21:00.117Z,1.73
2023-03-26T10:23:39.458Z,1.67
2023-03-26T10:26:14.730Z,1.50
2023-03-26T10:28:48.447Z,1.67
2023-03-26T10:31:28.198Z,1.50
2023-03-26T10:34:00.428Z,1.65
2023-03-26T10:36:32.878Z,1.48
2023-03-26T10:39:36.316Z,1.55
2023-03-26T10:42:12.612Z,1.30
2023-03-26T10:44:50.711Z,1.70
2023-03-26T10:47:26.695Z,1.80
2023-03-26T10:50:09.083Z,1.50
2023-03-26T10:52:38.807Z,1.80
2023-03-26T10:55:12.079Z,1.50
2023-03-26T10:57:42.650Z,2.17
2023-03-26T11:00:17.587Z,1.52
2023-03-26T11:02:47.817Z,1.60
2023-03-26T11:05:27.568Z,1.40
2023-03-26T11:07:58.204Z,2.03
2023-03-26T11:10:30.064Z,2.05
2023-03-26T11:13:02.252Z,2.10
2023-03-26T11:15:32.177Z,1.58
2023-03-26T11:18:06.646Z,1.50
2023-03-26T11:20:38.769Z,1.48
2023-03-26T11:23:16.510Z,1.67
2023-03-26T11:25:57.642Z,1.43
2023-03-26T11:28:32.167Z,1.40
2023-03-26T11:31:03.073Z,1.40
2023-03-26T11:33:33.119Z,1.77
2023-03-26T11:36:02.454Z,2.08
2023-03-26T11:38:31.855Z,1.77
2023-03-26T11:41:01.293Z,1.23
2023-03-26T11:43:31.932Z,1.23
2023-03-26T11:46:00.749Z,1.20
2023-03-26T11:48:31.945Z,1.30
2023-03-26T11:51:04.258Z,1.25
2023-03-26T11:53:34.580Z,1.40
2023-03-26T11:56:04.551Z,1.20
2023-03-26T11:58:35.355Z,1.20
2023-03-26T12:01:05.051Z,1.20
2023-03-26T12:03:32.756Z,2.05
2023-03-26T12:06:02.805Z,1.70
2023-03-26T12:08:33.072Z,0.90
2023-03-26T12:11:02.097Z,1.50
2023-03-26T12:13:30.644Z,1.08
2023-03-26T12:16:02.216Z,1.20
2023-03-26T12:18:29.845Z,1.30
2023-03-26T12:21:05.708Z,1.27
2023-03-26T12:23:38.755Z,1.30
2023-03-26T12:26:13.019Z,1.42
2023-03-26T12:28:44.776Z,1.30
2023-03-26T12:31:18.031Z,1.70
2023-03-26T12:33:46.843Z,1.50
2023-03-26T12:36:18.576Z,1.42
2023-03-26T12:38:46.002Z,1.10
2023-03-26T12:44:42.331Z,1.85
2023-03-26T12:44:55.071Z,1.40
2023-03-26T12:47:58.146Z,2.10
2023-03-26T12:50:09.606Z,1.20
2023-03-26T12:52:42.913Z,1.15
2023-03-26T12:55:17.634Z,1.67
2023-03-26T12:57:51.467Z,1.20
2023-03-26T13:00:26.194Z,1.30
2023-03-26T13:03:17.786Z,1.13
2023-03-26T13:05:57.740Z,1.25
2023-03-26T13:08:36.908Z,1.30
2023-03-26T13:11:06.404Z,1.13
2023-03-26T13:13:41.116Z,1.30
2023-03-26T13:16:10.528Z,1.40
2023-03-26T13:18:43.578Z,1.50
2023-03-26T13:21:13.594Z,1.40
2023-03-26T13:23:44.973Z,1.20
2023-03-26T13:26:16.976Z,1.30
2023-03-26T13:28:49.742Z,1.40
2023-03-26T13:31:20.593Z,1.40
2023-03-26T13:33:55.062Z,1.30
2023-03-26T13:36:25.943Z,1.13
2023-03-26T13:39:03.444Z,1.20
2023-03-26T13:41:34.709Z,0.80
2023-03-26T13:51:29.822Z,0.93
